sensor_id;sensor_type;location;lat;lon;timestamp;temperature;humidity
20204;DHT22;10261;49.010;12.034;2022-12-16T00:00:49;2.60;99.90
20204;DHT22;10261;49.010;12.034;2022-12-16T00:01:51;2.60;99.90
20204;DHT22;10261;49.010;12.034;2022-12-16T00:02:58;2.50;99.90
20204;DHT22;10261;49.010;12.034;2022-12-16T00:04:01;2.50;99.90
20204;DHT22;10261;49.010;12.034;2022-12-16T00:05:04;2.50;99.90
20204;DHT22;10261;49.010;12.034;2022-12-16T00:06:08;2.50;99.90
20204;DHT22;10261;49.010;12.034;2022-12-16T00:07:11;2.50;99.90
20204;DHT22;10261;49.010;12.034;2022-12-16T00:08:13;2.50;99.90
20204;DHT22;10261;49.010;12.034;2022-12-16T00:09:16;2.50;99.90
20204;DHT22;10261;49.010;12.034;2022-12-16T00:10:19;2.70;99.90
20204;DHT22;10261;49.010;12.034;2022-12-16T00:11:22;2.70;99.90
20204;DHT22;10261;49.010;12.034;2022-12-16T00:12:25;2.70;99.90
20204;DHT22;10261;49.010;12.034;2022-12-16T00:13:29;2.70;99.90
20204;DHT22;10261;49.010;12.034;2022-12-16T00:14:33;2.70;99.90
20204;DHT22;10261;49.010;12.034;2022-12-16T00:15:36;2.60;99.90
20204;DHT22;10261;49.010;12.034;2022-12-16T00:16:39;2.70;99.90
20204;DHT22;10261;49.010;12.034;2022-12-16T00:17:42;2.70;99.90
20204;DHT22;10261;49.010;12.034;2022-12-16T00:18:45;2.70;99.90
20204;DHT22;10261;49.010;12.034;2022-12-16T00:19:48;2.70;99.90
20204;DHT22;10261;49.010;12.034;2022-12-16T00:20:52;2.60;99.90
20204;DHT22;10261;49.010;12.034;2022-12-16T00:21:55;2.60;99.90
20204;DHT22;10261;49.010;12.034;2022-12-16T00:22:57;2.70;99.90
20204;DHT22;10261;49.010;12.034;2022-12-16T00:24:00;2.70;99.90
20204;DHT22;10261;49.010;12.034;2022-12-16T00:25:03;2.60;99.90
20204;DHT22;10261;49.010;12.034;2022-12-16T00:26:08;2.60;99.90
20204;DHT22;10261;49.010;12.034;2022-12-16T00:27:10;2.60;99.90
20204;DHT22;10261;49.010;12.034;2022-12-16T00:28:14;2.60;99.90
20204;DHT22;10261;49.010;12.034;2022-12-16T00:29:17;2.60;99.90
20204;DHT22;10261;49.010;12.034;2022-12-16T00:30:20;2.50;99.90
20204;DHT22;10261;49.010;12.034;2022-12-16T00:31:23;2.60;99.90
20204;DHT22;10261;49.010;12.034;2022-12-16T00:32:26;2.60;99.90
20204;DHT22;10261;49.010;12.034;2022-12-16T00:33:28;2.70;99.90
20204;DHT22;10261;49.010;12.034;2022-12-16T00:34:31;2.60;99.90
20204;DHT22;10261;49.010;12.034;2022-12-16T00:35:34;2.60;99.90
20204;DHT22;10261;49.010;12.034;2022-12-16T00:36:36;2.50;99.90
20204;DHT22;10261;49.010;12.034;2022-12-16T00:37:39;2.50;99.90
20204;DHT22;10261;49.010;12.034;2022-12-16T00:38:41;2.60;99.90
20204;DHT22;10261;49.010;12.034;2022-12-16T00:39:44;2.70;99.90
20204;DHT22;10261;49.010;12.034;2022-12-16T00:40:46;2.70;99.90
20204;DHT22;10261;49.010;12.034;2022-12-16T00:41:51;2.70;99.90
20204;DHT22;10261;49.010;12.034;2022-12-16T00:42:55;2.70;99.90
20204;DHT22;10261;49.010;12.034;2022-12-16T00:43:57;2.70;99.90
20204;DHT22;10261;49.010;12.034;2022-12-16T00:45:00;2.70;99.90
20204;DHT22;10261;49.010;12.034;2022-12-16T00:46:02;2.70;99.90
20204;DHT22;10261;49.010;12.034;2022-12-16T00:47:05;2.60;99.90
20204;DHT22;10261;49.010;12.034;2022-12-16T00:48:07;2.60;99.90
20204;DHT22;10261;49.010;12.034;2022-12-16T00:49:10;2.70;99.90
20204;DHT22;10261;49.010;12.034;2022-12-16T00:50:12;2.80;99.90
20204;DHT22;10261;49.010;12.034;2022-12-16T00:51:15;2.90;99.90
20204;DHT22;10261;49.010;12.034;2022-12-16T00:52:17;2.90;99.90
20204;DHT22;10261;49.010;12.034;2022-12-16T00:53:21;2.90;99.90
20204;DHT22;10261;49.010;12.034;2022-12-16T00:54:23;2.80;99.90
20204;DHT22;10261;49.010;12.034;2022-12-16T00:55:26;2.80;99.90
20204;DHT22;10261;49.010;12.034;2022-12-16T00:56:28;2.80;99.90
20204;DHT22;10261;49.010;12.034;2022-12-16T00:57:32;2.80;99.90
20204;DHT22;10261;49.010;12.034;2022-12-16T00:58:35;2.70;99.90
20204;DHT22;10261;49.010;12.034;2022-12-16T00:59:38;2.80;99.90
20204;DHT22;10261;49.010;12.034;2022-12-16T01:00:41;2.70;99.90
20204;DHT22;10261;49.010;12.034;2022-12-16T01:01:43;2.70;99.90
20204;DHT22;10261;49.010;12.034;2022-12-16T01:02:47;2.70;99.90
20204;DHT22;10261;49.010;12.034;2022-12-16T01:03:50;2.80;99.90
20204;DHT22;10261;49.010;12.034;2022-12-16T01:04:53;2.80;99.90
20204;DHT22;10261;49.010;12.034;2022-12-16T01:05:55;2.90;99.90
20204;DHT22;10261;49.010;12.034;2022-12-16T01:06:58;2.80;99.90
20204;DHT22;10261;49.010;12.034;2022-12-16T01:08:00;2.80;99.90
20204;DHT22;10261;49.010;12.034;2022-12-16T01:09:03;2.80;99.90
20204;DHT22;10261;49.010;12.034;2022-12-16T01:10:06;2.80;99.90
20204;DHT22;10261;49.010;12.034;2022-12-16T01:11:10;2.70;99.90
20204;DHT22;10261;49.010;12.034;2022-12-16T01:12:12;2.70;99.90
20204;DHT22;10261;49.010;12.034;2022-12-16T01:13:16;2.70;99.90
20204;DHT22;10261;49.010;12.034;2022-12-16T01:14:18;2.70;99.90
20204;DHT22;10261;49.010;12.034;2022-12-16T01:15:21;2.70;99.90
20204;DHT22;10261;49.010;12.034;2022-12-16T01:16:23;2.70;99.90
20204;DHT22;10261;49.010;12.034;2022-12-16T01:17:26;2.70;99.90
20204;DHT22;10261;49.010;12.034;2022-12-16T01:18:28;2.70;99.90
20204;DHT22;10261;49.010;12.034;2022-12-16T01:19:32;2.70;99.90
20204;DHT22;10261;49.010;12.034;2022-12-16T01:20:34;2.70;99.90
20204;DHT22;10261;49.010;12.034;2022-12-16T01:21:37;2.70;99.90
20204;DHT22;10261;49.010;12.034;2022-12-16T01:22:40;2.70;99.90
20204;DHT22;10261;49.010;12.034;2022-12-16T01:23:43;2.70;99.90
20204;DHT22;10261;49.010;12.034;2022-12-16T01:24:45;2.70;99.90
20204;DHT22;10261;49.010;12.034;2022-12-16T01:25:50;2.70;99.90
20204;DHT22;10261;49.010;12.034;2022-12-16T01:26:53;2.80;99.90
20204;DHT22;10261;49.010;12.034;2022-12-16T01:27:56;2.80;99.90
20204;DHT22;10261;49.010;12.034;2022-12-16T01:28:59;2.80;99.90
20204;DHT22;10261;49.010;12.034;2022-12-16T01:30:03;2.90;99.90
20204;DHT22;10261;49.010;12.034;2022-12-16T01:31:05;2.90;99.90
20204;DHT22;10261;49.010;12.034;2022-12-16T01:32:11;2.90;99.90
20204;DHT22;10261;49.010;12.034;2022-12-16T01:33:15;2.90;99.90
20204;DHT22;10261;49.010;12.034;2022-12-16T01:34:18;2.80;99.90
20204;DHT22;10261;49.010;12.034;2022-12-16T01:35:20;2.80;99.90
20204;DHT22;10261;49.010;12.034;2022-12-16T01:36:43;2.80;99.90
20204;DHT22;10261;49.010;12.034;2022-12-16T01:37:46;2.70;99.90
20204;DHT22;10261;49.010;12.034;2022-12-16T01:38:49;2.80;99.90
20204;DHT22;10261;49.010;12.034;2022-12-16T01:39:52;2.80;99.90
20204;DHT22;10261;49.010;12.034;2022-12-16T01:40:54;2.70;99.90
20204;DHT22;10261;49.010;12.034;2022-12-16T01:41:57;2.70;99.90
20204;DHT22;10261;49.010;12.034;2022-12-16T01:42:59;2.70;99.90
20204;DHT22;10261;49.010;12.034;2022-12-16T01:44:17;2.70;99.90
20204;DHT22;10261;49.010;12.034;2022-12-16T01:45:30;2.80;99.90
20204;DHT22;10261;49.010;12.034;2022-12-16T01:46:33;2.80;99.90
20204;DHT22;10261;49.010;12.034;2022-12-16T01:47:39;2.80;99.90
20204;DHT22;10261;49.010;12.034;2022-12-16T01:48:44;2.90;99.90
20204;DHT22;10261;49.010;12.034;2022-12-16T01:49:51;2.90;99.90
20204;DHT22;10261;49.010;12.034;2022-12-16T01:51:00;2.80;99.90
20204;DHT22;10261;49.010;12.034;2022-12-16T01:52:06;2.70;99.90
20204;DHT22;10261;49.010;12.034;2022-12-16T01:53:10;2.70;99.90
20204;DHT22;10261;49.010;12.034;2022-12-16T01:54:16;2.80;99.90
20204;DHT22;10261;49.010;12.034;2022-12-16T01:55:22;2.80;99.90
20204;DHT22;10261;49.010;12.034;2022-12-16T01:56:27;2.90;99.90
20204;DHT22;10261;49.010;12.034;2022-12-16T01:57:35;3.00;99.90
20204;DHT22;10261;49.010;12.034;2022-12-16T01:58:39;2.90;99.90
20204;DHT22;10261;49.010;12.034;2022-12-16T01:59:46;2.70;99.90
20204;DHT22;10261;49.010;12.034;2022-12-16T02:00:49;2.80;99.90
20204;DHT22;10261;49.010;12.034;2022-12-16T02:01:55;2.70;99.90
20204;DHT22;10261;49.010;12.034;2022-12-16T02:02:58;2.80;99.90
20204;DHT22;10261;49.010;12.034;2022-12-16T02:04:03;2.80;99.90
20204;DHT22;10261;49.010;12.034;2022-12-16T02:05:06;2.80;99.90
20204;DHT22;10261;49.010;12.034;2022-12-16T02:06:23;2.80;99.90
20204;DHT22;10261;49.010;12.034;2022-12-16T02:07:26;2.80;99.90
20204;DHT22;10261;49.010;12.034;2022-12-16T02:08:28;2.80;99.90
20204;DHT22;10261;49.010;12.034;2022-12-16T02:09:31;2.70;99.90
20204;DHT22;10261;49.010;12.034;2022-12-16T02:10:44;2.70;99.90
20204;DHT22;10261;49.010;12.034;2022-12-16T02:12:05;2.80;99.90
20204;DHT22;10261;49.010;12.034;2022-12-16T02:13:21;2.80;99.90
20204;DHT22;10261;49.010;12.034;2022-12-16T02:14:56;2.80;99.90
20204;DHT22;10261;49.010;12.034;2022-12-16T02:16:06;2.70;99.90
20204;DHT22;10261;49.010;12.034;2022-12-16T02:17:20;2.80;99.90
20204;DHT22;10261;49.010;12.034;2022-12-16T02:18:33;2.80;99.90
20204;DHT22;10261;49.010;12.034;2022-12-16T02:23:08;2.80;99.90
20204;DHT22;10261;49.010;12.034;2022-12-16T02:27:50;2.80;99.90
20204;DHT22;10261;49.010;12.034;2022-12-16T02:29:12;2.80;99.90
20204;DHT22;10261;49.010;12.034;2022-12-16T02:30:43;2.90;99.90
20204;DHT22;10261;49.010;12.034;2022-12-16T02:31:51;2.80;99.90
20204;DHT22;10261;49.010;12.034;2022-12-16T02:33:06;2.70;99.90
20204;DHT22;10261;49.010;12.034;2022-12-16T02:34:17;2.80;99.90
20204;DHT22;10261;49.010;12.034;2022-12-16T02:35:27;2.90;99.90
20204;DHT22;10261;49.010;12.034;2022-12-16T02:36:46;2.80;99.90
20204;DHT22;10261;49.010;12.034;2022-12-16T02:38:06;2.80;99.90
20204;DHT22;10261;49.010;12.034;2022-12-16T02:39:17;2.80;99.90
20204;DHT22;10261;49.010;12.034;2022-12-16T02:40:51;2.70;99.90
20204;DHT22;10261;49.010;12.034;2022-12-16T02:42:00;2.70;99.90
20204;DHT22;10261;49.010;12.034;2022-12-16T02:43:07;2.70;99.90
20204;DHT22;10261;49.010;12.034;2022-12-16T02:44:13;2.60;99.90
20204;DHT22;10261;49.010;12.034;2022-12-16T02:45:18;2.70;99.90
20204;DHT22;10261;49.010;12.034;2022-12-16T02:46:26;2.80;99.90
20204;DHT22;10261;49.010;12.034;2022-12-16T02:47:30;2.80;99.90
20204;DHT22;10261;49.010;12.034;2022-12-16T02:48:33;2.80;99.90
20204;DHT22;10261;49.010;12.034;2022-12-16T02:49:45;2.80;99.90
20204;DHT22;10261;49.010;12.034;2022-12-16T02:50:50;2.80;99.90
20204;DHT22;10261;49.010;12.034;2022-12-16T02:51:53;2.80;99.90
20204;DHT22;10261;49.010;12.034;2022-12-16T02:52:57;2.90;99.90
20204;DHT22;10261;49.010;12.034;2022-12-16T02:53:59;2.80;99.90
20204;DHT22;10261;49.010;12.034;2022-12-16T02:55:05;2.90;99.90
20204;DHT22;10261;49.010;12.034;2022-12-16T02:56:21;2.80;99.90
20204;DHT22;10261;49.010;12.034;2022-12-16T02:57:45;2.90;99.90
20204;DHT22;10261;49.010;12.034;2022-12-16T02:58:55;2.90;99.90
20204;DHT22;10261;49.010;12.034;2022-12-16T03:00:02;2.90;99.90
20204;DHT22;10261;49.010;12.034;2022-12-16T03:01:09;2.90;99.90
20204;DHT22;10261;49.010;12.034;2022-12-16T03:02:21;2.80;99.90
20204;DHT22;10261;49.010;12.034;2022-12-16T03:03:30;2.80;99.90
20204;DHT22;10261;49.010;12.034;2022-12-16T03:04:40;2.70;99.90
20204;DHT22;10261;49.010;12.034;2022-12-16T03:05:46;2.70;99.90
20204;DHT22;10261;49.010;12.034;2022-12-16T03:06:50;2.80;99.90
20204;DHT22;10261;49.010;12.034;2022-12-16T03:07:58;2.70;99.90
20204;DHT22;10261;49.010;12.034;2022-12-16T03:09:04;2.70;99.90
20204;DHT22;10261;49.010;12.034;2022-12-16T03:10:12;2.80;99.90
20204;DHT22;10261;49.010;12.034;2022-12-16T03:11:15;2.80;99.90
20204;DHT22;10261;49.010;12.034;2022-12-16T03:12:19;2.80;99.90
20204;DHT22;10261;49.010;12.034;2022-12-16T03:13:22;2.80;99.90
20204;DHT22;10261;49.010;12.034;2022-12-16T03:14:28;2.80;99.90
20204;DHT22;10261;49.010;12.034;2022-12-16T03:15:33;2.70;99.90
20204;DHT22;10261;49.010;12.034;2022-12-16T03:16:36;2.60;99.90
20204;DHT22;10261;49.010;12.034;2022-12-16T03:17:40;2.70;99.90
20204;DHT22;10261;49.010;12.034;2022-12-16T03:18:47;2.70;99.90
20204;DHT22;10261;49.010;12.034;2022-12-16T03:20:06;2.70;99.90
20204;DHT22;10261;49.010;12.034;2022-12-16T03:21:12;2.70;99.90
20204;DHT22;10261;49.010;12.034;2022-12-16T03:22:19;2.60;99.90
20204;DHT22;10261;49.010;12.034;2022-12-16T03:23:26;2.60;99.90
20204;DHT22;10261;49.010;12.034;2022-12-16T03:24:30;2.70;99.90
20204;DHT22;10261;49.010;12.034;2022-12-16T03:25:33;2.60;99.90
20204;DHT22;10261;49.010;12.034;2022-12-16T03:26:43;2.60;99.90
20204;DHT22;10261;49.010;12.034;2022-12-16T03:27:54;2.70;99.90
20204;DHT22;10261;49.010;12.034;2022-12-16T03:29:00;2.70;99.90
20204;DHT22;10261;49.010;12.034;2022-12-16T03:30:09;2.70;99.90
20204;DHT22;10261;49.010;12.034;2022-12-16T03:31:19;2.60;99.90
20204;DHT22;10261;49.010;12.034;2022-12-16T03:32:30;2.60;99.90
20204;DHT22;10261;49.010;12.034;2022-12-16T03:33:38;2.70;99.90
20204;DHT22;10261;49.010;12.034;2022-12-16T03:34:46;2.60;99.90
20204;DHT22;10261;49.010;12.034;2022-12-16T03:35:52;2.60;99.90
20204;DHT22;10261;49.010;12.034;2022-12-16T03:36:59;2.50;99.90
20204;DHT22;10261;49.010;12.034;2022-12-16T03:38:04;2.60;99.90
20204;DHT22;10261;49.010;12.034;2022-12-16T03:39:08;2.70;99.90
20204;DHT22;10261;49.010;12.034;2022-12-16T03:40:11;2.60;99.90
20204;DHT22;10261;49.010;12.034;2022-12-16T03:41:16;2.70;99.90
20204;DHT22;10261;49.010;12.034;2022-12-16T03:42:19;2.60;99.90
20204;DHT22;10261;49.010;12.034;2022-12-16T03:43:22;2.70;99.90
20204;DHT22;10261;49.010;12.034;2022-12-16T03:44:24;2.70;99.90
20204;DHT22;10261;49.010;12.034;2022-12-16T03:45:31;2.70;99.90
20204;DHT22;10261;49.010;12.034;2022-12-16T03:46:36;2.70;99.90
20204;DHT22;10261;49.010;12.034;2022-12-16T03:47:39;2.70;99.90
20204;DHT22;10261;49.010;12.034;2022-12-16T03:48:47;2.70;99.90
20204;DHT22;10261;49.010;12.034;2022-12-16T03:49:50;2.70;99.90
20204;DHT22;10261;49.010;12.034;2022-12-16T03:50:52;2.60;99.90
20204;DHT22;10261;49.010;12.034;2022-12-16T03:51:56;2.70;99.90
20204;DHT22;10261;49.010;12.034;2022-12-16T03:52:58;2.70;99.90
20204;DHT22;10261;49.010;12.034;2022-12-16T03:54:01;2.70;99.90
20204;DHT22;10261;49.010;12.034;2022-12-16T03:55:03;2.70;99.90
20204;DHT22;10261;49.010;12.034;2022-12-16T03:56:07;2.60;99.90
20204;DHT22;10261;49.010;12.034;2022-12-16T03:57:09;2.60;99.90
20204;DHT22;10261;49.010;12.034;2022-12-16T03:58:16;2.60;99.90
20204;DHT22;10261;49.010;12.034;2022-12-16T03:59:18;2.70;99.90
20204;DHT22;10261;49.010;12.034;2022-12-16T04:00:22;2.70;99.90
20204;DHT22;10261;49.010;12.034;2022-12-16T04:01:24;2.60;99.90
20204;DHT22;10261;49.010;12.034;2022-12-16T04:02:27;2.70;99.90
20204;DHT22;10261;49.010;12.034;2022-12-16T04:03:29;2.60;99.90
20204;DHT22;10261;49.010;12.034;2022-12-16T04:04:34;2.70;99.90
20204;DHT22;10261;49.010;12.034;2022-12-16T04:05:36;2.70;99.90
20204;DHT22;10261;49.010;12.034;2022-12-16T04:06:39;2.60;99.90
20204;DHT22;10261;49.010;12.034;2022-12-16T04:07:41;2.60;99.90
20204;DHT22;10261;49.010;12.034;2022-12-16T04:08:45;2.60;99.90
20204;DHT22;10261;49.010;12.034;2022-12-16T04:09:49;2.60;99.90
20204;DHT22;10261;49.010;12.034;2022-12-16T04:10:52;2.60;99.90
20204;DHT22;10261;49.010;12.034;2022-12-16T04:12:13;2.60;99.90
20204;DHT22;10261;49.010;12.034;2022-12-16T04:13:33;2.70;99.90
20204;DHT22;10261;49.010;12.034;2022-12-16T04:14:54;2.60;99.90
20204;DHT22;10261;49.010;12.034;2022-12-16T04:16:15;2.60;99.90
20204;DHT22;10261;49.010;12.034;2022-12-16T04:17:36;2.50;99.90
20204;DHT22;10261;49.010;12.034;2022-12-16T04:18:57;2.50;99.90
20204;DHT22;10261;49.010;12.034;2022-12-16T04:20:20;2.50;99.90
20204;DHT22;10261;49.010;12.034;2022-12-16T04:21:42;2.60;99.90
20204;DHT22;10261;49.010;12.034;2022-12-16T04:23:03;2.40;99.90
20204;DHT22;10261;49.010;12.034;2022-12-16T04:24:26;2.50;99.90
20204;DHT22;10261;49.010;12.034;2022-12-16T04:25:33;2.40;99.90
20204;DHT22;10261;49.010;12.034;2022-12-16T04:26:36;2.40;99.90
20204;DHT22;10261;49.010;12.034;2022-12-16T04:27:53;2.40;99.90
20204;DHT22;10261;49.010;12.034;2022-12-16T04:28:59;2.40;99.90
20204;DHT22;10261;49.010;12.034;2022-12-16T04:30:01;2.40;99.90
20204;DHT22;10261;49.010;12.034;2022-12-16T04:31:22;2.40;99.90
20204;DHT22;10261;49.010;12.034;2022-12-16T04:32:24;2.30;99.90
20204;DHT22;10261;49.010;12.034;2022-12-16T04:33:28;2.30;99.90
20204;DHT22;10261;49.010;12.034;2022-12-16T04:34:48;2.30;99.90
20204;DHT22;10261;49.010;12.034;2022-12-16T04:35:53;2.40;99.90
20204;DHT22;10261;49.010;12.034;2022-12-16T04:37:13;2.20;99.90
20204;DHT22;10261;49.010;12.034;2022-12-16T04:38:34;2.20;99.90
20204;DHT22;10261;49.010;12.034;2022-12-16T04:39:54;2.10;99.90
20204;DHT22;10261;49.010;12.034;2022-12-16T04:41:15;2.20;99.90
20204;DHT22;10261;49.010;12.034;2022-12-16T04:42:36;2.10;99.90
20204;DHT22;10261;49.010;12.034;2022-12-16T04:43:56;2.10;99.90
20204;DHT22;10261;49.010;12.034;2022-12-16T04:45:17;2.20;99.90
20204;DHT22;10261;49.010;12.034;2022-12-16T04:46:38;2.30;99.90
20204;DHT22;10261;49.010;12.034;2022-12-16T04:47:58;2.30;99.90
20204;DHT22;10261;49.010;12.034;2022-12-16T04:49:18;2.20;99.90
20204;DHT22;10261;49.010;12.034;2022-12-16T04:50:39;2.20;99.90
20204;DHT22;10261;49.010;12.034;2022-12-16T04:52:01;2.20;99.90
20204;DHT22;10261;49.010;12.034;2022-12-16T04:53:21;2.30;99.90
20204;DHT22;10261;49.010;12.034;2022-12-16T04:54:42;2.30;99.90
20204;DHT22;10261;49.010;12.034;2022-12-16T04:56:03;2.40;99.90
20204;DHT22;10261;49.010;12.034;2022-12-16T04:57:23;2.40;99.90
20204;DHT22;10261;49.010;12.034;2022-12-16T04:58:44;2.40;99.90
20204;DHT22;10261;49.010;12.034;2022-12-16T05:00:06;2.40;99.90
20204;DHT22;10261;49.010;12.034;2022-12-16T05:01:26;2.30;99.90
20204;DHT22;10261;49.010;12.034;2022-12-16T05:02:47;2.30;99.90
20204;DHT22;10261;49.010;12.034;2022-12-16T05:04:08;2.40;99.90
20204;DHT22;10261;49.010;12.034;2022-12-16T05:05:28;2.50;99.90
20204;DHT22;10261;49.010;12.034;2022-12-16T05:07:01;2.40;99.90
20204;DHT22;10261;49.010;12.034;2022-12-16T05:08:22;2.40;99.90
20204;DHT22;10261;49.010;12.034;2022-12-16T05:09:42;2.30;99.90
20204;DHT22;10261;49.010;12.034;2022-12-16T05:11:03;2.40;99.90
20204;DHT22;10261;49.010;12.034;2022-12-16T05:12:24;2.30;99.90
20204;DHT22;10261;49.010;12.034;2022-12-16T05:13:44;2.30;99.90
20204;DHT22;10261;49.010;12.034;2022-12-16T05:15:06;2.30;99.90
20204;DHT22;10261;49.010;12.034;2022-12-16T05:16:26;2.30;99.90
20204;DHT22;10261;49.010;12.034;2022-12-16T05:17:46;2.30;99.90
20204;DHT22;10261;49.010;12.034;2022-12-16T05:19:07;2.30;99.90
20204;DHT22;10261;49.010;12.034;2022-12-16T05:20:32;2.30;99.90
20204;DHT22;10261;49.010;12.034;2022-12-16T05:21:53;2.20;99.90
20204;DHT22;10261;49.010;12.034;2022-12-16T05:23:11;2.20;99.90
20204;DHT22;10261;49.010;12.034;2022-12-16T05:24:31;2.40;99.90
20204;DHT22;10261;49.010;12.034;2022-12-16T05:25:57;2.40;99.90
20204;DHT22;10261;49.010;12.034;2022-12-16T05:27:18;2.30;99.90
20204;DHT22;10261;49.010;12.034;2022-12-16T05:28:38;2.30;99.90
20204;DHT22;10261;49.010;12.034;2022-12-16T05:29:59;2.30;99.90
20204;DHT22;10261;49.010;12.034;2022-12-16T05:31:19;2.40;99.90
20204;DHT22;10261;49.010;12.034;2022-12-16T05:32:40;2.40;99.90
20204;DHT22;10261;49.010;12.034;2022-12-16T05:34:00;2.50;99.90
20204;DHT22;10261;49.010;12.034;2022-12-16T05:35:21;2.40;99.90
20204;DHT22;10261;49.010;12.034;2022-12-16T05:36:41;2.30;99.90
20204;DHT22;10261;49.010;12.034;2022-12-16T05:38:02;2.20;99.90
20204;DHT22;10261;49.010;12.034;2022-12-16T05:39:20;2.30;99.90
20204;DHT22;10261;49.010;12.034;2022-12-16T05:40:41;2.30;99.90
20204;DHT22;10261;49.010;12.034;2022-12-16T05:42:01;2.40;99.90
20204;DHT22;10261;49.010;12.034;2022-12-16T05:43:22;2.50;99.90
20204;DHT22;10261;49.010;12.034;2022-12-16T05:44:42;2.30;99.90
20204;DHT22;10261;49.010;12.034;2022-12-16T05:46:03;2.20;99.90
20204;DHT22;10261;49.010;12.034;2022-12-16T05:47:24;2.40;99.90
20204;DHT22;10261;49.010;12.034;2022-12-16T05:48:45;2.30;99.90
20204;DHT22;10261;49.010;12.034;2022-12-16T05:50:06;2.30;99.90
20204;DHT22;10261;49.010;12.034;2022-12-16T05:51:26;2.40;99.90
20204;DHT22;10261;49.010;12.034;2022-12-16T05:52:48;2.40;99.90
20204;DHT22;10261;49.010;12.034;2022-12-16T05:54:09;2.40;99.90
20204;DHT22;10261;49.010;12.034;2022-12-16T05:55:31;2.30;99.90
20204;DHT22;10261;49.010;12.034;2022-12-16T05:56:51;2.30;99.90
20204;DHT22;10261;49.010;12.034;2022-12-16T05:58:12;2.30;99.90
20204;DHT22;10261;49.010;12.034;2022-12-16T05:59:32;2.30;99.90
20204;DHT22;10261;49.010;12.034;2022-12-16T06:00:53;2.40;99.90
20204;DHT22;10261;49.010;12.034;2022-12-16T06:02:14;2.30;99.90
20204;DHT22;10261;49.010;12.034;2022-12-16T06:03:35;2.40;99.90
20204;DHT22;10261;49.010;12.034;2022-12-16T06:04:56;2.30;99.90
20204;DHT22;10261;49.010;12.034;2022-12-16T06:06:16;2.40;99.90
20204;DHT22;10261;49.010;12.034;2022-12-16T06:07:37;2.40;99.90
20204;DHT22;10261;49.010;12.034;2022-12-16T06:08:57;2.30;99.90
20204;DHT22;10261;49.010;12.034;2022-12-16T06:10:17;2.20;99.90
20204;DHT22;10261;49.010;12.034;2022-12-16T06:11:39;2.30;99.90
20204;DHT22;10261;49.010;12.034;2022-12-16T06:13:00;2.30;99.90
20204;DHT22;10261;49.010;12.034;2022-12-16T06:14:20;2.30;99.90
20204;DHT22;10261;49.010;12.034;2022-12-16T06:15:41;2.20;99.90
20204;DHT22;10261;49.010;12.034;2022-12-16T06:17:09;2.20;99.90
20204;DHT22;10261;49.010;12.034;2022-12-16T06:18:29;2.30;99.90
20204;DHT22;10261;49.010;12.034;2022-12-16T06:19:50;2.30;99.90
20204;DHT22;10261;49.010;12.034;2022-12-16T06:21:10;2.30;99.90
20204;DHT22;10261;49.010;12.034;2022-12-16T06:22:31;2.30;99.90
20204;DHT22;10261;49.010;12.034;2022-12-16T06:23:51;2.30;99.90
20204;DHT22;10261;49.010;12.034;2022-12-16T06:25:12;2.10;99.90
20204;DHT22;10261;49.010;12.034;2022-12-16T06:26:32;2.20;99.90
20204;DHT22;10261;49.010;12.034;2022-12-16T06:27:54;2.20;99.90
20204;DHT22;10261;49.010;12.034;2022-12-16T06:29:14;2.30;99.90
20204;DHT22;10261;49.010;12.034;2022-12-16T06:30:35;2.20;99.90
20204;DHT22;10261;49.010;12.034;2022-12-16T06:31:56;2.20;99.90
20204;DHT22;10261;49.010;12.034;2022-12-16T06:33:16;2.20;99.90
20204;DHT22;10261;49.010;12.034;2022-12-16T06:34:37;2.20;99.90
20204;DHT22;10261;49.010;12.034;2022-12-16T06:35:57;2.20;99.90
20204;DHT22;10261;49.010;12.034;2022-12-16T06:37:18;2.30;99.90
20204;DHT22;10261;49.010;12.034;2022-12-16T06:38:38;2.30;99.90
20204;DHT22;10261;49.010;12.034;2022-12-16T06:39:59;2.20;99.90
20204;DHT22;10261;49.010;12.034;2022-12-16T06:41:19;2.30;99.90
20204;DHT22;10261;49.010;12.034;2022-12-16T06:42:40;2.30;99.90
20204;DHT22;10261;49.010;12.034;2022-12-16T06:44:01;2.30;99.90
20204;DHT22;10261;49.010;12.034;2022-12-16T06:45:21;2.40;99.90
20204;DHT22;10261;49.010;12.034;2022-12-16T06:46:41;2.30;99.90
20204;DHT22;10261;49.010;12.034;2022-12-16T06:48:01;2.30;99.90
20204;DHT22;10261;49.010;12.034;2022-12-16T06:49:22;2.30;99.90
20204;DHT22;10261;49.010;12.034;2022-12-16T06:50:43;2.30;99.90
20204;DHT22;10261;49.010;12.034;2022-12-16T06:52:03;2.20;99.90
20204;DHT22;10261;49.010;12.034;2022-12-16T06:53:23;2.20;99.90
20204;DHT22;10261;49.010;12.034;2022-12-16T06:54:44;2.10;99.90
20204;DHT22;10261;49.010;12.034;2022-12-16T06:56:28;2.20;99.90
20204;DHT22;10261;49.010;12.034;2022-12-16T06:57:54;2.30;99.90
20204;DHT22;10261;49.010;12.034;2022-12-16T06:59:17;2.30;99.90
20204;DHT22;10261;49.010;12.034;2022-12-16T07:00:37;2.20;99.90
20204;DHT22;10261;49.010;12.034;2022-12-16T07:01:57;2.20;99.90
20204;DHT22;10261;49.010;12.034;2022-12-16T07:03:19;2.20;99.90
20204;DHT22;10261;49.010;12.034;2022-12-16T07:04:39;2.10;99.90
20204;DHT22;10261;49.010;12.034;2022-12-16T07:05:59;2.10;99.90
20204;DHT22;10261;49.010;12.034;2022-12-16T07:07:20;2.20;99.90
20204;DHT22;10261;49.010;12.034;2022-12-16T07:08:40;2.20;99.90
20204;DHT22;10261;49.010;12.034;2022-12-16T07:10:04;2.30;99.90
20204;DHT22;10261;49.010;12.034;2022-12-16T07:11:25;2.10;99.90
20204;DHT22;10261;49.010;12.034;2022-12-16T07:12:46;2.20;99.90
20204;DHT22;10261;49.010;12.034;2022-12-16T07:14:06;2.30;99.90
20204;DHT22;10261;49.010;12.034;2022-12-16T07:15:28;2.20;99.90
20204;DHT22;10261;49.010;12.034;2022-12-16T07:16:48;2.30;99.90
20204;DHT22;10261;49.010;12.034;2022-12-16T07:18:15;2.20;99.90
20204;DHT22;10261;49.010;12.034;2022-12-16T07:19:32;2.20;99.90
20204;DHT22;10261;49.010;12.034;2022-12-16T07:20:53;2.10;99.90
20204;DHT22;10261;49.010;12.034;2022-12-16T07:22:13;2.10;99.90
20204;DHT22;10261;49.010;12.034;2022-12-16T07:23:34;2.10;99.90
20204;DHT22;10261;49.010;12.034;2022-12-16T07:24:51;2.10;99.90
20204;DHT22;10261;49.010;12.034;2022-12-16T07:26:11;2.10;99.90
20204;DHT22;10261;49.010;12.034;2022-12-16T07:27:32;2.10;99.90
20204;DHT22;10261;49.010;12.034;2022-12-16T07:29:16;2.10;99.90
20204;DHT22;10261;49.010;12.034;2022-12-16T07:30:44;2.10;99.90
20204;DHT22;10261;49.010;12.034;2022-12-16T07:32:05;2.20;99.90
20204;DHT22;10261;49.010;12.034;2022-12-16T07:33:25;2.20;99.90
20204;DHT22;10261;49.010;12.034;2022-12-16T07:34:46;2.20;99.90
20204;DHT22;10261;49.010;12.034;2022-12-16T07:36:07;2.30;99.90
20204;DHT22;10261;49.010;12.034;2022-12-16T07:37:27;2.20;99.90
20204;DHT22;10261;49.010;12.034;2022-12-16T07:38:47;2.20;99.90
20204;DHT22;10261;49.010;12.034;2022-12-16T07:40:09;2.20;99.90